createdAt,value
2018-12-14T00:01:44.589Z,4.03
2018-12-14T00:04:13.062Z,3.67
2018-12-14T00:06:41.582Z,2.83
2018-12-14T00:09:10.204Z,3.00
2018-12-14T00:11:38.681Z,2.90
2018-12-14T00:14:07.187Z,3.47
2018-12-14T00:16:35.791Z,2.20
2018-12-14T00:19:04.306Z,4.57
2018-12-14T00:21:32.819Z,2.23
2018-12-14T00:24:01.414Z,4.27
2018-12-14T00:26:29.891Z,3.17
2018-12-14T00:28:58.381Z,4.37
2018-12-14T00:31:26.859Z,2.90
2018-12-14T00:33:55.348Z,2.27
2018-12-14T00:36:23.839Z,2.57
2018-12-14T00:38:52.555Z,3.37
2018-12-14T00:41:21.152Z,2.47
2018-12-14T00:43:49.643Z,2.77
2018-12-14T00:46:18.115Z,2.13
2018-12-14T00:48:46.994Z,2.40
2018-12-14T00:51:15.751Z,2.07
2018-12-14T00:53:44.215Z,2.27
2018-12-14T00:56:12.687Z,2.70
2018-12-14T00:58:41.251Z,1.63
2018-12-14T01:01:09.726Z,2.23
2018-12-14T01:03:38.194Z,2.17
2018-12-14T01:06:06.850Z,2.90
2018-12-14T01:08:35.338Z,2.20
2018-12-14T01:11:03.818Z,1.93
2018-12-14T01:13:32.344Z,1.70
2018-12-14T01:16:00.999Z,2.80
2018-12-14T01:18:29.499Z,1.93
2018-12-14T01:20:58.003Z,2.50
2018-12-14T01:23:26.507Z,2.33
2018-12-14T01:25:54.991Z,2.47
2018-12-14T01:28:23.611Z,2.53
2018-12-14T01:30:52.109Z,1.57
2018-12-14T01:33:20.595Z,2.40
2018-12-14T01:35:49.112Z,1.70
2018-12-14T01:38:17.594Z,1.90
2018-12-14T01:40:46.103Z,1.83
2018-12-14T01:43:14.590Z,1.67
2018-12-14T01:45:43.082Z,1.73
2018-12-14T01:48:11.565Z,1.73
2018-12-14T01:50:40.055Z,2.07
2018-12-14T01:53:08.578Z,2.40
2018-12-14T01:55:37.067Z,1.83
2018-12-14T01:58:05.555Z,2.10
2018-12-14T02:00:34.055Z,1.70
2018-12-14T02:03:02.670Z,2.00
2018-12-14T02:05:31.163Z,1.83
2018-12-14T02:07:59.910Z,1.87
2018-12-14T02:10:28.399Z,2.07
2018-12-14T02:12:56.936Z,2.60
2018-12-14T02:15:25.620Z,1.60
2018-12-14T02:17:54.159Z,2.33
2018-12-14T02:20:22.890Z,2.67
2018-12-14T02:22:51.480Z,1.50
2018-12-14T02:25:19.957Z,1.77
2018-12-14T02:27:48.502Z,2.50
2018-12-14T02:30:28.160Z,1.47
2018-12-14T02:32:56.630Z,1.50
2018-12-14T02:35:25.368Z,1.50
2018-12-14T02:37:54.128Z,1.80
2018-12-14T02:40:22.713Z,1.47
2018-12-14T02:42:51.539Z,1.67
2018-12-14T02:45:20.039Z,1.83
2018-12-14T02:47:48.530Z,1.87
2018-12-14T02:50:17.064Z,2.00
2018-12-14T02:52:45.556Z,1.50
2018-12-14T02:55:14.287Z,1.50
2018-12-14T02:57:42.771Z,1.70
2018-12-14T03:00:11.391Z,2.13
2018-12-14T03:02:39.975Z,1.53
2018-12-14T03:05:08.715Z,3.17
2018-12-14T03:07:37.328Z,1.60
2018-12-14T03:10:06.527Z,1.40
2018-12-14T03:12:35.166Z,1.73
2018-12-14T03:15:04.046Z,1.20
2018-12-14T03:17:32.515Z,1.53
2018-12-14T03:20:01.015Z,1.27
2018-12-14T03:22:30.173Z,1.33
2018-12-14T03:24:58.689Z,2.07
2018-12-14T03:27:27.316Z,1.40
2018-12-14T03:29:55.931Z,1.50
2018-12-14T03:32:24.440Z,2.63
2018-12-14T03:34:52.919Z,1.20
2018-12-14T03:37:21.403Z,1.20
2018-12-14T03:39:49.907Z,1.13
2018-12-14T03:42:18.387Z,1.70
2018-12-14T03:44:47.018Z,1.40
2018-12-14T03:47:15.518Z,2.90
2018-12-14T03:49:44.028Z,1.67
2018-12-14T03:52:12.506Z,1.57
2018-12-14T03:54:41.100Z,1.70
2018-12-14T03:57:09.909Z,1.20
2018-12-14T03:59:38.624Z,3.17
2018-12-14T04:02:07.271Z,1.30
2018-12-14T04:04:35.762Z,1.40
2018-12-14T04:07:04.554Z,1.87
2018-12-14T04:09:33.038Z,1.27
2018-12-14T04:12:01.646Z,3.93
2018-12-14T04:14:30.393Z,1.20
2018-12-14T04:16:58.895Z,1.43
2018-12-14T04:19:27.508Z,1.10
2018-12-14T04:21:56.038Z,1.53
2018-12-14T04:24:24.697Z,1.30
2018-12-14T04:26:53.185Z,1.27
2018-12-14T04:29:21.672Z,2.33
2018-12-14T04:31:50.151Z,1.37
2018-12-14T04:34:18.635Z,1.20
2018-12-14T04:36:47.105Z,1.40
2018-12-14T04:39:15.766Z,1.30
2018-12-14T04:41:44.254Z,1.77
2018-12-14T04:44:12.726Z,1.70
2018-12-14T04:46:41.211Z,1.20
2018-12-14T04:49:09.683Z,1.10
2018-12-14T04:51:38.269Z,1.33
2018-12-14T04:54:06.755Z,1.40
2018-12-14T04:56:35.239Z,1.30
2018-12-14T04:59:03.863Z,1.13
2018-12-14T05:01:32.503Z,1.40
2018-12-14T05:04:00.987Z,1.30
2018-12-14T05:06:29.487Z,1.13
2018-12-14T05:08:57.960Z,1.20
2018-12-14T05:11:26.568Z,1.50
2018-12-14T05:13:55.083Z,1.20
2018-12-14T05:16:23.554Z,1.10
2018-12-14T05:18:52.265Z,1.00
2018-12-14T05:21:21.175Z,1.20
2018-12-14T05:23:49.848Z,1.20
2018-12-14T05:26:18.346Z,1.33
2018-12-14T05:28:46.982Z,2.40
2018-12-14T05:31:15.463Z,1.17
2018-12-14T05:33:43.971Z,1.67
2018-12-14T05:36:12.456Z,1.07
2018-12-14T05:38:40.947Z,1.50
2018-12-14T05:41:09.447Z,1.50
2018-12-14T05:43:37.934Z,1.70
2018-12-14T05:46:06.415Z,2.17
2018-12-14T05:48:35.823Z,1.80
2018-12-14T05:51:04.318Z,1.47
2018-12-14T05:53:32.857Z,2.23
2018-12-14T05:56:01.591Z,1.60
2018-12-14T05:58:30.218Z,1.27
2018-12-14T06:00:58.707Z,1.60
2018-12-14T06:03:27.191Z,1.13
2018-12-14T06:05:55.795Z,1.40
2018-12-14T06:08:24.422Z,1.50
2018-12-14T06:10:52.963Z,1.30
2018-12-14T06:14:50.630Z,1.67
2018-12-14T06:17:19.239Z,2.27
2018-12-14T06:19:47.715Z,1.57
2018-12-14T06:22:16.382Z,1.57
2018-12-14T06:24:44.974Z,1.90
2018-12-14T06:27:13.467Z,1.90
2018-12-14T06:29:41.960Z,1.60
2018-12-14T06:32:10.467Z,6.27
2018-12-14T06:34:39.020Z,2.00
2018-12-14T06:37:08.142Z,2.30
2018-12-14T06:39:36.651Z,1.30
2018-12-14T06:42:05.487Z,1.87
2018-12-14T06:44:33.999Z,1.73
2018-12-14T06:47:02.683Z,2.13
2018-12-14T06:49:31.171Z,1.93
2018-12-14T06:52:00.002Z,2.20
2018-12-14T06:54:28.539Z,1.10
2018-12-14T06:56:57.226Z,2.33
2018-12-14T06:59:26.045Z,4.60
2018-12-14T07:01:54.527Z,2.70
2018-12-14T07:04:23.035Z,4.60
2018-12-14T07:06:51.647Z,1.33
2018-12-14T07:09:20.136Z,2.77
2018-12-14T07:11:48.621Z,4.30
2018-12-14T07:14:17.106Z,2.57
2018-12-14T07:16:45.589Z,1.83
2018-12-14T07:19:14.211Z,1.30
2018-12-14T07:21:42.694Z,1.73
2018-12-14T07:24:11.725Z,1.37
2018-12-14T07:26:40.460Z,1.70
2018-12-14T07:29:09.174Z,1.53
2018-12-14T07:31:37.674Z,2.50
2018-12-14T07:34:06.290Z,3.00
2018-12-14T07:36:34.775Z,3.03
2018-12-14T07:39:03.959Z,2.37
2018-12-14T07:41:32.501Z,1.87
2018-12-14T07:44:01.374Z,1.40
2018-12-14T07:46:29.874Z,1.30
2018-12-14T07:48:58.575Z,1.80
2018-12-14T07:51:27.938Z,1.30
2018-12-14T07:53:56.632Z,1.30
2018-12-14T07:56:26.171Z,1.77
2018-12-14T07:58:55.395Z,1.20
2018-12-14T08:01:24.009Z,1.37
2018-12-14T08:06:45.858Z,2.17
2018-12-14T08:09:14.351Z,1.37
2018-12-14T08:11:42.939Z,1.30
2018-12-14T08:14:11.435Z,1.33
2018-12-14T08:16:39.935Z,1.47
2018-12-14T08:19:08.442Z,2.10
2018-12-14T08:21:37.187Z,3.23
2018-12-14T08:24:05.743Z,2.83
2018-12-14T08:26:34.279Z,2.67
2018-12-14T08:29:02.815Z,7.70
2018-12-14T08:31:31.319Z,4.10
2018-12-14T08:33:59.821Z,2.20
2018-12-14T08:36:28.327Z,1.57
2018-12-14T08:38:56.835Z,2.13
2018-12-14T08:41:25.338Z,3.03
2018-12-14T08:43:53.876Z,4.50
2018-12-14T08:46:22.415Z,1.33
2018-12-14T08:48:50.915Z,3.17
2018-12-14T08:51:19.432Z,1.17
2018-12-14T08:53:48.079Z,2.53
2018-12-14T08:56:20.778Z,2.27
2018-12-14T08:58:52.902Z,1.60
2018-12-14T09:01:32.198Z,2.70
2018-12-14T09:04:00.842Z,1.83
2018-12-14T09:06:29.527Z,1.87
2018-12-14T09:08:58.071Z,1.70
2018-12-14T09:11:26.598Z,1.77
2018-12-14T09:13:55.139Z,2.20
2018-12-14T09:16:23.659Z,1.30
2018-12-14T09:18:52.162Z,3.40
2018-12-14T09:21:20.670Z,1.57
2018-12-14T09:23:49.360Z,1.90
2018-12-14T09:26:18.032Z,2.37
2018-12-14T09:28:46.731Z,2.17
2018-12-14T09:31:16.163Z,2.87
2018-12-14T09:33:44.666Z,1.40
2018-12-14T09:36:13.179Z,1.00
2018-12-14T09:38:41.678Z,1.30
2018-12-14T09:41:16.028Z,1.90
2018-12-14T09:43:40.703Z,2.87
2018-12-14T09:46:09.291Z,1.80
2018-12-14T09:48:37.894Z,2.00
2018-12-14T09:51:12.154Z,2.60
2018-12-14T09:53:37.062Z,1.13
2018-12-14T09:56:05.679Z,1.60
2018-12-14T09:58:34.163Z,1.80
2018-12-14T10:01:02.655Z,2.33
2018-12-14T10:03:31.704Z,3.07
2018-12-14T10:06:00.240Z,1.30
2018-12-14T10:08:29.019Z,2.17
2018-12-14T10:10:58.054Z,2.33
2018-12-14T10:13:26.829Z,2.37
2018-12-14T10:15:55.762Z,1.80
2018-12-14T10:18:24.234Z,1.47
2018-12-14T10:20:52.712Z,1.07
2018-12-14T10:23:21.319Z,2.57
2018-12-14T10:25:49.831Z,1.10
2018-12-14T10:28:18.306Z,2.70
2018-12-14T10:30:46.922Z,1.90
2018-12-14T10:33:15.618Z,2.93
2018-12-14T10:35:44.222Z,2.40
2018-12-14T10:38:12.726Z,1.53
2018-12-14T10:40:41.207Z,5.07
2018-12-14T10:43:09.842Z,1.60
2018-12-14T10:45:38.488Z,1.57
2018-12-14T10:48:07.125Z,1.60
2018-12-14T10:50:39.625Z,1.10
2018-12-14T10:53:12.242Z,1.97
2018-12-14T10:55:41.267Z,3.20
2018-12-14T10:58:09.908Z,2.63
2018-12-14T11:00:43.810Z,1.87
2018-12-14T11:03:12.306Z,2.30
2018-12-14T11:05:40.848Z,2.17
2018-12-14T11:08:09.349Z,1.23
2018-12-14T11:10:37.851Z,2.70
2018-12-14T11:13:06.354Z,1.40
2018-12-14T11:15:40.324Z,1.97
2018-12-14T11:18:08.868Z,2.70
2018-12-14T11:20:37.415Z,1.33
2018-12-14T11:23:05.945Z,1.83
2018-12-14T11:25:34.539Z,1.20
2018-12-14T11:28:03.077Z,1.30
2018-12-14T11:30:31.966Z,1.50
2018-12-14T11:33:00.618Z,1.27
2018-12-14T11:35:29.179Z,1.27
2018-12-14T11:37:57.737Z,1.77
2018-12-14T11:40:26.271Z,1.20
2018-12-14T11:42:54.853Z,2.00
2018-12-14T11:45:23.495Z,1.53
2018-12-14T11:47:52.007Z,1.40
2018-12-14T11:50:20.551Z,1.20
2018-12-14T11:52:49.082Z,1.03
2018-12-14T11:55:17.847Z,1.30
2018-12-14T11:57:46.647Z,1.10
2018-12-14T12:00:15.571Z,1.70
2018-12-14T12:02:44.339Z,1.20
2018-12-14T12:05:13.007Z,1.80
2018-12-14T12:07:42.680Z,1.57
2018-12-14T12:10:11.626Z,1.27
2018-12-14T12:12:40.452Z,1.23
2018-12-14T12:15:09.723Z,1.77
2018-12-14T12:17:39.587Z,1.60
2018-12-14T12:20:09.138Z,1.87
2018-12-14T12:22:37.679Z,3.13
2018-12-14T12:25:06.255Z,1.77
2018-12-14T12:27:35.052Z,1.97
2018-12-14T12:30:04.484Z,0.97
2018-12-14T12:32:33.152Z,1.33
2018-12-14T12:35:01.921Z,1.53
2018-12-14T12:37:30.579Z,2.17
2018-12-14T12:39:59.122Z,1.70
2018-12-14T12:42:27.925Z,2.57
2018-12-14T12:44:56.603Z,1.60
2018-12-14T12:47:25.140Z,1.67
2018-12-14T12:49:53.805Z,2.77
2018-12-14T12:52:22.343Z,3.60
2018-12-14T12:54:51.115Z,2.27
2018-12-14T12:57:19.659Z,1.90
2018-12-14T12:59:48.197Z,1.10
2018-12-14T13:02:16.761Z,1.40
2018-12-14T13:04:45.592Z,2.03
2018-12-14T13:07:14.131Z,2.70
2018-12-14T13:09:42.671Z,1.30
2018-12-14T13:12:11.222Z,2.93
2018-12-14T13:14:40.215Z,3.43
2018-12-14T13:17:09.059Z,2.13
2018-12-14T13:19:37.609Z,1.13
2018-12-14T13:22:06.187Z,1.80
2018-12-14T13:24:34.974Z,1.07
2018-12-14T13:27:03.604Z,2.73
2018-12-14T13:29:32.137Z,1.50
2018-12-14T13:32:00.724Z,1.50
2018-12-14T13:34:29.259Z,2.07
2018-12-14T13:36:57.817Z,1.10
2018-12-14T13:39:26.347Z,1.00
2018-12-14T13:41:54.931Z,1.73
2018-12-14T13:44:23.865Z,1.30
2018-12-14T13:46:52.555Z,1.07
2018-12-14T13:49:21.193Z,1.33
2018-12-14T13:51:49.670Z,1.00
2018-12-14T13:54:18.345Z,1.30
2018-12-14T13:56:46.852Z,1.43
2018-12-14T13:59:15.331Z,2.10
2018-12-14T14:01:43.935Z,0.77
2018-12-14T14:04:12.422Z,1.13
2018-12-14T14:06:40.926Z,1.10
2018-12-14T14:09:09.431Z,2.73
2018-12-14T14:11:37.946Z,1.30
2018-12-14T14:14:06.783Z,2.97
2018-12-14T14:16:35.267Z,1.50
2018-12-14T14:19:03.794Z,1.20
2018-12-14T14:21:32.477Z,3.93
2018-12-14T14:24:01.238Z,0.93
2018-12-14T14:26:30.099Z,1.03
2018-12-14T14:28:58.574Z,1.57
2018-12-14T14:31:27.112Z,0.70
2018-12-14T14:33:55.602Z,1.10
2018-12-14T14:36:24.107Z,1.73
2018-12-14T14:38:52.945Z,1.30
2018-12-14T14:41:21.703Z,1.00
2018-12-14T14:43:50.187Z,3.67
2018-12-14T14:46:18.667Z,1.63
2018-12-14T14:48:47.165Z,2.50
2018-12-14T14:51:16.216Z,4.10
2018-12-14T14:53:44.815Z,1.30
2018-12-14T14:56:13.306Z,2.13
2018-12-14T14:58:41.808Z,1.60
2018-12-14T15:01:10.300Z,1.00
2018-12-14T15:03:38.938Z,0.77
2018-12-14T15:06:07.434Z,2.60
2018-12-14T15:08:35.931Z,0.97
2018-12-14T15:11:04.656Z,1.63
2018-12-14T15:13:33.417Z,1.10
2018-12-14T15:16:02.161Z,3.30
2018-12-14T15:18:30.675Z,2.30
2018-12-14T15:20:59.203Z,3.73
2018-12-14T15:23:27.671Z,1.00
2018-12-14T15:25:56.151Z,1.50
2018-12-14T15:28:24.656Z,4.37
2018-12-14T15:30:53.149Z,1.47
2018-12-14T15:33:21.640Z,3.33
2018-12-14T15:35:50.131Z,3.40
2018-12-14T15:38:18.643Z,4.00
2018-12-14T15:40:47.119Z,1.00
2018-12-14T15:43:15.607Z,1.73
2018-12-14T15:45:44.090Z,2.30
2018-12-14T15:48:12.606Z,1.27
2018-12-14T15:50:41.118Z,1.20
2018-12-14T15:53:09.616Z,2.00
2018-12-14T15:55:38.110Z,1.00
2018-12-14T15:58:06.610Z,1.07
2018-12-14T16:00:35.350Z,1.20
2018-12-14T16:03:04.006Z,1.43
2018-12-14T16:05:32.507Z,1.30
2018-12-14T16:08:01.027Z,1.33
2018-12-14T16:10:29.521Z,2.40
2018-12-14T16:12:58.016Z,1.67
2018-12-14T16:15:26.495Z,2.40
2018-12-14T16:17:55.003Z,1.30
2018-12-14T16:20:23.697Z,1.33
2018-12-14T16:22:52.211Z,1.33
2018-12-14T16:25:20.719Z,1.17
2018-12-14T16:27:49.190Z,1.20
2018-12-14T16:30:17.672Z,1.60
2018-12-14T16:32:46.151Z,1.10
2018-12-14T16:35:14.711Z,1.10
2018-12-14T16:37:43.330Z,2.23
2018-12-14T16:40:11.839Z,1.87
2018-12-14T16:42:40.511Z,1.40
2018-12-14T16:45:09.124Z,1.13
2018-12-14T16:47:37.605Z,1.20
2018-12-14T16:50:06.307Z,1.93
2018-12-14T16:52:34.911Z,1.77
2018-12-14T16:55:03.742Z,1.10
2018-12-14T16:57:32.415Z,1.43
2018-12-14T17:00:00.935Z,1.53
2018-12-14T17:02:29.422Z,1.10
2018-12-14T17:04:57.914Z,1.63
2018-12-14T17:07:26.391Z,1.43
2018-12-14T17:09:54.895Z,1.43
2018-12-14T17:12:23.395Z,2.20
2018-12-14T17:14:51.901Z,1.63
2018-12-14T17:17:20.424Z,1.23
2018-12-14T17:19:49.096Z,2.20
2018-12-14T17:22:17.579Z,1.93
2018-12-14T17:24:46.059Z,8.47
2018-12-14T17:27:14.547Z,4.43
2018-12-14T17:29:43.202Z,3.93
2018-12-14T17:32:11.674Z,4.70
2018-12-14T17:34:40.303Z,3.37
2018-12-14T17:37:08.895Z,3.97
2018-12-14T17:39:37.403Z,4.50
2018-12-14T17:42:05.903Z,4.20
2018-12-14T17:44:34.719Z,6.30
2018-12-14T17:47:03.358Z,5.90
2018-12-14T17:49:31.839Z,2.43
2018-12-14T17:52:00.374Z,2.60
2018-12-14T17:54:28.871Z,3.17
2018-12-14T17:56:57.723Z,4.20
2018-12-14T17:59:26.256Z,2.70
2018-12-14T18:01:54.778Z,3.10
2018-12-14T18:04:23.331Z,2.43
2018-12-14T18:06:51.861Z,2.70
2018-12-14T18:09:20.431Z,2.70
2018-12-14T18:11:49.042Z,2.73
2018-12-14T18:14:17.531Z,2.40
2018-12-14T18:16:46.343Z,4.20
2018-12-14T18:19:14.970Z,2.07
2018-12-14T18:21:43.522Z,4.03
2018-12-14T18:24:12.129Z,7.17
2018-12-14T18:26:40.619Z,4.60
2018-12-14T18:29:09.086Z,2.70
2018-12-14T18:31:37.582Z,2.67
2018-12-14T18:34:06.246Z,3.80
2018-12-14T18:36:34.742Z,2.87
2018-12-14T18:39:04.299Z,3.37
2018-12-14T18:41:32.819Z,3.00
2018-12-14T18:44:01.315Z,2.53
2018-12-14T18:46:29.935Z,2.53
2018-12-14T18:48:58.474Z,2.20
2018-12-14T18:51:27.106Z,5.43
2018-12-14T18:53:59.687Z,4.47
2018-12-14T18:56:29.167Z,4.20
2018-12-14T18:58:58.351Z,1.93
2018-12-14T19:01:26.975Z,2.07
2018-12-14T19:03:56.851Z,2.77
2018-12-14T19:06:25.459Z,1.97
2018-12-14T19:08:54.453Z,3.10
2018-12-14T19:11:22.938Z,2.50
2018-12-14T19:13:51.413Z,2.53
2018-12-14T19:16:19.906Z,2.70
2018-12-14T19:18:48.399Z,4.63
2018-12-14T19:21:16.874Z,2.83
2018-12-14T19:23:45.493Z,3.10
2018-12-14T19:26:14.202Z,2.40
2018-12-14T19:28:42.721Z,4.73
2018-12-14T19:31:11.320Z,2.43
2018-12-14T19:33:39.859Z,2.40
2018-12-14T19:36:08.361Z,3.63
2018-12-14T19:38:36.859Z,5.33
2018-12-14T19:41:05.395Z,3.10
2018-12-14T19:43:33.894Z,3.17
2018-12-14T19:46:06.305Z,2.67
2018-12-14T19:48:33.031Z,2.73
2018-12-14T19:51:01.519Z,10.47
2018-12-14T19:53:30.162Z,23.30
2018-12-14T19:55:58.654Z,22.83
2018-12-14T19:58:27.154Z,20.07
2018-12-14T20:00:55.657Z,15.90
2018-12-14T20:03:24.143Z,17.37
2018-12-14T20:05:52.771Z,15.87
2018-12-14T20:08:21.298Z,11.40
2018-12-14T20:10:50.800Z,13.47
2018-12-14T20:13:19.288Z,8.73
2018-12-14T20:15:47.822Z,14.87
2018-12-14T20:18:16.597Z,10.80
2018-12-14T20:20:45.075Z,9.30
2018-12-14T20:23:13.574Z,8.23
2018-12-14T20:25:42.059Z,9.97
2018-12-14T20:28:10.542Z,8.63
2018-12-14T20:30:39.026Z,7.87
2018-12-14T20:33:07.537Z,7.87
2018-12-14T20:35:36.155Z,9.70
2018-12-14T20:38:04.872Z,7.73
2018-12-14T20:40:33.375Z,10.27
2018-12-14T20:43:01.861Z,6.77
2018-12-14T20:45:30.346Z,9.27
2018-12-14T20:47:59.038Z,8.23
2018-12-14T20:50:27.538Z,11.10
2018-12-14T20:52:56.014Z,7.77
2018-12-14T20:55:24.524Z,12.50
2018-12-14T20:57:53.015Z,9.27
2018-12-14T21:00:21.755Z,9.67
2018-12-14T21:02:50.251Z,6.03
2018-12-14T21:05:18.859Z,8.47
2018-12-14T21:07:47.352Z,8.53
2018-12-14T21:10:15.842Z,7.27
2018-12-14T21:12:44.342Z,6.10
2018-12-14T21:15:12.973Z,6.33
2018-12-14T21:17:41.641Z,5.83
2018-12-14T21:20:10.142Z,5.50
2018-12-14T21:22:38.638Z,5.87
2018-12-14T21:25:07.131Z,5.30
2018-12-14T21:27:35.632Z,5.73
2018-12-14T21:30:05.976Z,6.23
2018-12-14T21:32:34.463Z,5.60
2018-12-14T21:35:03.095Z,6.93
2018-12-14T21:37:31.604Z,4.77
2018-12-14T21:40:00.075Z,5.20
2018-12-14T21:42:28.680Z,11.10
2018-12-14T21:44:57.160Z,10.30
2018-12-14T21:47:25.648Z,7.07
2018-12-14T21:49:54.263Z,6.93
2018-12-14T21:52:22.926Z,6.37
2018-12-14T21:54:51.450Z,5.77
2018-12-14T21:57:19.934Z,6.23
2018-12-14T21:59:48.439Z,9.00
2018-12-14T22:02:16.935Z,6.57
2018-12-14T22:04:45.410Z,5.83
2018-12-14T22:07:13.896Z,7.03
2018-12-14T22:09:43.283Z,4.93
2018-12-14T22:12:11.933Z,5.50
2018-12-14T22:14:40.471Z,5.50
2018-12-14T22:17:09.078Z,5.63
2018-12-14T22:19:37.548Z,6.57
2018-12-14T22:22:06.038Z,4.27
2018-12-14T22:24:35.408Z,5.00
2018-12-14T22:27:04.017Z,5.10
2018-12-14T22:29:32.639Z,5.50
2018-12-14T22:32:01.342Z,4.53
2018-12-14T22:34:29.960Z,4.57
2018-12-14T22:36:58.478Z,3.83
2018-12-14T22:39:27.395Z,5.57
2018-12-14T22:41:56.027Z,3.47
2018-12-14T22:44:24.656Z,4.50
2018-12-14T22:46:53.144Z,4.27
2018-12-14T22:49:21.662Z,4.70
2018-12-14T22:51:50.146Z,3.87
2018-12-14T22:54:18.766Z,3.23
2018-12-14T22:56:47.591Z,4.43
2018-12-14T22:59:16.082Z,5.20
2018-12-14T23:01:44.615Z,2.80
2018-12-14T23:04:13.282Z,3.10
2018-12-14T23:06:41.947Z,2.97
2018-12-14T23:09:10.469Z,4.10
2018-12-14T23:11:38.966Z,3.23
2018-12-14T23:14:07.463Z,3.77
2018-12-14T23:16:35.968Z,3.33
2018-12-14T23:19:04.504Z,3.10
2018-12-14T23:21:33.142Z,4.20
2018-12-14T23:24:01.745Z,3.00
2018-12-14T23:26:30.234Z,3.07
2018-12-14T23:28:58.739Z,3.57
2018-12-14T23:31:27.214Z,2.90
2018-12-14T23:33:55.852Z,2.90
2018-12-14T23:36:24.466Z,2.67
2018-12-14T23:38:52.959Z,2.37
2018-12-14T23:41:21.446Z,2.50
2018-12-14T23:43:49.942Z,2.53
2018-12-14T23:46:18.562Z,3.07
2018-12-14T23:48:47.234Z,2.20
2018-12-14T23:51:15.745Z,3.63
2018-12-14T23:53:44.466Z,2.33
2018-12-14T23:56:12.973Z,3.03
2018-12-14T23:58:41.472Z,4.37
